This is the latest recevied weather packets stored in our database for station/object DC0PP-10. If no packets are shown the sender has not sent any weather packets the latest 10 day(s).
| Time | Temp. | Humidity | Pressure | Rain* | Wind** | Luminosity | Snow |
|---|---|---|---|---|---|---|---|
| 1777834544 | 19.44° C | 44% | 1016.1 hPa | - | - | - | - |
| 1777833644 | 20° C | 43% | 1016 hPa | - | - | - | - |
| 1777832748 | 20° C | 42% | 1016 hPa | - | - | - | - |
| 1777831848 | 20.56° C | 41% | 1016 hPa | - | - | - | - |
| 1777830948 | 20.56° C | 41% | 1016 hPa | - | - | - | - |
| 1777830048 | 21.11° C | 40% | 1015.9 hPa | - | - | - | - |
| 1777829148 | 21.11° C | 42% | 1016 hPa | - | - | - | - |
| 1777828247 | 21.11° C | 39% | 1015.9 hPa | - | - | - | - |
| 1777827350 | 21.67° C | 39% | 1016 hPa | - | - | - | - |
| 1777826447 | 21.67° C | 38% | 1015.9 hPa | - | - | - | - |
| 1777825547 | 22.22° C | 39% | 1015.9 hPa | - | - | - | - |
| 1777824647 | 22.22° C | 37% | 1015.7 hPa | - | - | - | - |
| 1777823747 | 22.78° C | 37% | 1015.6 hPa | - | - | - | - |
| 1777822846 | 23.33° C | 35% | 1015.3 hPa | - | - | - | - |
| 1777821946 | 23.33° C | 34% | 1015.1 hPa | - | - | - | - |
| 1777821046 | 24.44° C | 32% | 1014.7 hPa | - | - | - | - |
| 1777820146 | 26.11° C | 36% | 1014.3 hPa | - | - | - | - |
| 1777819246 | 27.78° C | 35% | 1014.3 hPa | - | - | - | - |
| 1777818346 | 26.67° C | 34% | 1014.4 hPa | - | - | - | - |
| 1777817445 | 26.11° C | 35% | 1014.5 hPa | - | - | - | - |
| 1777816545 | 27.22° C | 35% | 1014.4 hPa | - | - | - | - |
| 1777815644 | 26.67° C | 34% | 1014.5 hPa | - | - | - | - |
| 1777814744 | 26.67° C | 33% | 1014.6 hPa | - | - | - | - |
| 1777813844 | 26.67° C | 34% | 1014.8 hPa | - | - | - | - |
| 1777812944 | 27.78° C | 35% | 1014.8 hPa | - | - | - | - |
* Rain since midnight (hover to see other rain measurements)
** Current wind speed in m/s (hover to see current wind gust speed)